M I D A S
Marine Information and Data Acquisition System
Tripno 1996 of the Zeeleeuw from 2010-10-27 06:16:02 to 2010-10-27 14:40:10
Back to CruiseResearch ActivitiesStationsMapUnderway DataData graphs

EquipmentUnitsComment
TimeDGPSUTC
LatitudeDGPSDM.mWGS84
LongitudeDGPSDM.mWGS84
TemperatureSBE03/SBE38deg celciusITS90
ConductivitySBE21S/mITS90
SalinitySBE21 Practical Salinity Units
ChlorophylAChelsea fluorimeterg/lCalibrated in Aceton
Missing or incorrect values are displayed as -999
Sea surface data collected by the RV Zeeleeuw from 2010-10-27 06:10:07 to 2010-10-27 14:46:31
Time Latitude Longitude Temperature Conductivity Salinity ChlorophylA
2010-10-27 06:11:10 51°13.664 2°55.962 17.2899 0.069845 0.426238 -0.373735
2010-10-27 06:12:08 51°13.663 2°55.961 17.2926 0.069845 0.426238 -0.338911
2010-10-27 06:13:08 51°13.663 2°55.961 17.2784 0.069845 0.426238 -0.338911
2010-10-27 06:14:08 51°13.665 2°55.96 17.2809 0.069845 0.426246 -0.373735
2010-10-27 06:15:08 51°13.664 2°55.96 17.2815 0.069845 0.426254 -0.373735
2010-10-27 06:16:08 51°13.664 2°55.961 17.311 0.069845 0.426262 -0.338911
2010-10-27 06:17:08 51°13.665 2°55.96 17.3072 0.069845 0.426254 -0.373735
2010-10-27 06:18:08 51°13.663 2°55.96 17.3239 0.069845 0.426262 -0.373735
2010-10-27 06:19:08 51°13.663 2°55.96 17.3245 0.069845 0.426262 -0.373735
2010-10-27 06:20:08 51°13.662 2°55.961 17.3195 0.069845 0.426262 -0.373735
2010-10-27 06:21:08 51°13.662 2°55.96 17.3228 0.069845 0.426262 -0.373735
2010-10-27 06:22:08 51°13.662 2°55.952 17.278 0.069845 0.426262 -0.338911
2010-10-27 06:23:12 51°13.685 2°55.877 17.3397 0.069845 0.426262 -0.373735
2010-10-27 06:24:12 51°13.699 2°55.786 17.3105 0.069845 0.426262 -0.338911
2010-10-27 06:25:12 51°13.696 2°55.733 17.4167 0.069845 0.426238 -0.408559
2010-10-27 06:26:10 51°13.715 2°55.745 17.3347 0.069845 0.426286 -0.373735
2010-10-27 06:27:11 51°13.725 2°55.736 17.4112 0.069845 0.426238 -0.373735
2010-10-27 06:28:10 51°13.804 2°55.661 11.3788 2.418026 17.951568 0.044153
2010-10-27 06:29:08 51°13.924 2°55.567 11.0231 3.212037 27.637444 0.18345
2010-10-27 06:30:10 51°14.073 2°55.462 10.9231 3.241127 28.234173 0.078977
2010-10-27 06:31:11 51°14.229 2°55.349 10.833 3.196342 27.898916 0.044153
2010-10-27 06:32:12 51°14.387 2°55.19 10.78 3.171158 27.730037 0.044153
2010-10-27 06:33:11 51°14.554 2°55.017 10.78 3.291612 28.936125 0.148626
2010-10-27 06:34:09 51°14.724 2°54.809 10.7237 3.301203 29.042167 0.113802
2010-10-27 06:35:11 51°14.911 2°54.589 10.7818 3.342203 29.484426 0.113802
2010-10-27 06:36:10 51°15.087 2°54.384 10.8208 3.453517 30.536949 0.113802
2010-10-27 06:37:07 51°15.261 2°54.186 10.7922 3.478607 30.760351 0.044153
2010-10-27 06:38:08 51°15.442 2°53.966 10.9271 3.468697 30.669157 -0.025495
2010-10-27 06:39:08 51°15.616 2°53.745 10.9111 3.546396 31.315782 0.044153
2010-10-27 06:40:08 51°15.791 2°53.527 10.8401 3.535326 31.251433 -0.095143
2010-10-27 06:41:08 51°15.98 2°53.339 10.8568 3.518036 31.123133 -0.025495
2010-10-27 06:42:08 51°16.174 2°53.166 10.9198 3.519617 31.1278 -0.060319
2010-10-27 06:43:08 51°16.376 2°53.013 10.9839 3.539965 31.273809 -0.095143
2010-10-27 06:44:08 51°16.579 2°52.862 11.0805 3.555252 31.367173 -0.095143
2010-10-27 06:45:08 51°16.78 2°52.712 11.1671 3.585828 31.583297 -0.129967
2010-10-27 06:46:08 51°16.98 2°52.559 11.2027 3.60428 31.703509 -0.129967
2010-10-27 06:47:08 51°17.182 2°52.406 11.332 3.616616 31.785656 -0.095143
2010-10-27 06:48:08 51°17.383 2°52.252 11.5699 3.643503 31.904535 -0.129967
2010-10-27 06:49:08 51°17.583 2°52.093 11.6385 3.681147 32.11063 -0.129967
2010-10-27 06:50:08 51°17.781 2°51.937 11.6424 3.688317 32.130792 -0.129967
2010-10-27 06:51:08 51°17.982 2°51.784 11.6515 3.694328 32.186983 -0.095143
2010-10-27 06:52:08 51°18.183 2°51.629 11.6767 3.687684 32.106175 -0.095143
2010-10-27 06:53:08 51°18.383 2°51.473 11.6885 3.691164 32.122078 -0.095143
2010-10-27 06:54:08 51°18.584 2°51.315 11.667 3.682622 32.02918 -0.095143
2010-10-27 06:55:08 51°18.786 2°51.156 11.6502 3.697913 32.192216 -0.060319
2010-10-27 06:56:08 51°18.983 2°50.996 11.64 3.697913 32.213491 -0.060319
2010-10-27 06:57:08 51°19.184 2°50.836 11.6657 3.691164 32.15084 -0.060319
2010-10-27 06:58:08 51°19.383 2°50.679 11.6205 3.683044 32.053734 -0.060319
2010-10-27 06:59:08 51°19.584 2°50.522 11.5883 3.667648 31.951052 -0.025495
2010-10-27 07:00:08 51°19.786 2°50.357 11.4909 3.658264 31.888055 -0.060319
2010-10-27 07:01:08 51°19.987 2°50.196 11.4546 3.630848 31.701046 -0.060319
2010-10-27 07:02:08 51°20.187 2°50.033 11.4481 3.633379 31.743286 -0.025495
2010-10-27 07:03:08 51°20.388 2°49.872 11.4723 3.629583 31.71322 -0.060319
2010-10-27 07:04:08 51°20.584 2°49.701 11.5314 3.633801 31.726983 -0.095143
2010-10-27 07:05:08 51°20.679 2°49.391 11.7345 3.650566 31.836582 -0.129967
2010-10-27 07:06:08 51°20.757 2°49.056 11.8996 3.696014 32.097948 -0.095143
2010-10-27 07:07:08 51°20.842 2°48.724 12.014 3.716787 32.170255 -0.129967
2010-10-27 07:08:08 51°20.985 2°48.45 12.1433 3.738194 32.2714 -0.164791
2010-10-27 07:09:08 51°21.148 2°48.203 12.242 3.766246 32.434436 -0.164791
2010-10-27 07:10:08 51°21.31 2°47.952 12.3104 3.778057 32.465223 -0.164791
2010-10-27 07:11:08 51°21.469 2°47.698 12.3743 3.790185 32.522041 -0.129967
2010-10-27 07:12:08 51°21.622 2°47.438 12.4063 3.807165 32.63182 -0.095143
2010-10-27 07:13:08 51°21.767 2°47.165 12.4209 3.812544 32.660686 -0.095143
2010-10-27 07:14:08 51°21.909 2°46.888 12.4435 3.813809 32.659148 -0.095143
2010-10-27 07:15:08 51°22.055 2°46.616 12.472 3.821825 32.711754 -0.095143
2010-10-27 07:16:08 51°22.198 2°46.339 12.4981 3.825621 32.726154 -0.060319
2010-10-27 07:17:08 51°22.343 2°46.063 12.5223 3.829102 32.73685 -0.060319
2010-10-27 07:18:08 51°22.503 2°45.813 12.5424 3.835746 32.776973 -0.060319
2010-10-27 07:19:08 51°22.678 2°45.591 12.5606 3.840282 32.803116 -0.025495
2010-10-27 07:20:08 51°22.863 2°45.388 12.5935 3.843973 32.821896 -0.025495
2010-10-27 07:21:08 51°23.051 2°45.194 12.6236 3.850934 32.858131 -0.060319
2010-10-27 07:22:08 51°23.235 2°44.994 12.651 3.848086 32.805911 -0.025495
2010-10-27 07:23:08 51°23.42 2°44.799 12.6784 3.852199 32.819841 -0.060319
2010-10-27 07:24:08 51°23.615 2°44.622 12.7073 3.855046 32.822431 -0.060319
2010-10-27 07:25:08 51°23.807 2°44.433 12.7242 3.867598 32.914309 -0.025495
2010-10-27 07:26:08 51°23.994 2°44.241 12.7619 3.866016 32.88912 -0.025495
2010-10-27 07:27:08 51°24.184 2°44.057 12.8161 3.873715 32.927454 -0.060319
2010-10-27 07:28:08 51°24.368 2°43.918 12.8729 3.872449 32.860594 -0.025495
2010-10-27 07:29:08 51°24.508 2°43.806 12.9276 3.884789 32.932584 -0.025495
2010-10-27 07:30:08 51°24.571 2°43.726 12.9591 3.900927 33.039614 -0.025495
2010-10-27 07:31:08 51°24.631 2°43.696 12.9824 3.905568 33.061049 -0.060319
2010-10-27 07:32:08 51°24.674 2°43.701 13.0025 3.911581 33.09811 0.009329
2010-10-27 07:33:08 51°24.678 2°43.707 13.0156 3.911791 33.080447 -0.025495
2010-10-27 07:34:11 51°24.676 2°43.711 13.019 3.919597 33.141149 0.009329
2010-10-27 07:35:11 51°24.687 2°43.711 13.0326 3.923289 33.180025 -0.060319
2010-10-27 07:36:09 51°24.698 2°43.711 13.0447 3.91928 33.113094 -0.025495
2010-10-27 07:37:07 51°24.712 2°43.709 13.0479 3.917698 33.090073 0.009329
2010-10-27 07:38:08 51°24.732 2°43.701 13.0587 3.924449 33.152291 0.044153
2010-10-27 07:39:08 51°24.777 2°43.672 13.0602 3.922656 33.132017 0.009329
2010-10-27 07:40:08 51°24.83 2°43.75 13.0719 3.926664 33.158921 0.009329
2010-10-27 07:41:08 51°24.792 2°43.824 13.0626 3.926875 33.150071 -0.025495
2010-10-27 07:42:08 51°24.739 2°43.802 13.0545 3.926769 33.162624 0.044153
2010-10-27 07:43:08 51°24.715 2°43.766 13.0527 3.928141 33.174858 -0.025495
2010-10-27 07:44:08 51°24.695 2°43.738 13.0432 3.927192 33.176088 0.009329
2010-10-27 07:45:08 51°24.678 2°43.734 13.0456 3.925715 33.160824 -0.025495
2010-10-27 07:46:08 51°24.67 2°43.726 13.0374 3.927403 33.180109 0.009329
2010-10-27 07:47:08 51°24.664 2°43.713 13.0238 3.926242 33.17664 0.009329
2010-10-27 07:48:10 51°24.678 2°43.711 13.0307 3.925082 33.173849 0.009329
2010-10-27 07:49:08 51°24.698 2°43.722 13.0379 3.92255 33.143217 -0.025495
2010-10-27 07:50:08 51°24.711 2°43.737 13.0298 3.926137 33.17429 0.009329
2010-10-27 07:51:08 51°24.714 2°43.755 13.0289 3.927192 33.189656 0.009329
2010-10-27 07:52:08 51°24.731 2°43.715 13.0312 3.929513 33.21356 0.009329
2010-10-27 07:53:10 51°24.746 2°43.703 13.0421 3.922128 33.139243 0.009329
2010-10-27 07:54:09 51°24.73 2°43.617 13.0397 3.928352 33.192444 0.009329
2010-10-27 07:55:08 51°24.687 2°43.629 13.0381 3.9235 33.146061 0.009329
2010-10-27 07:56:08 51°24.662 2°43.676 13.028 3.927508 33.184494 0.009329
2010-10-27 07:57:08 51°24.664 2°43.686 13.0284 3.924555 33.161419 0.044153
2010-10-27 07:58:08 51°24.668 2°43.701 13.0272 3.926031 33.176688 -0.025495
2010-10-27 07:59:08 51°24.673 2°43.709 13.0269 3.926453 33.181341 -0.025495
2010-10-27 08:00:08 51°24.686 2°43.711 13.0281 3.923183 33.152568 -0.025495
2010-10-27 08:01:08 51°24.698 2°43.71 13.0239 3.925715 33.174385 0.009329
2010-10-27 08:02:08 51°24.71 2°43.713 13.0272 3.92677 33.183644 0.009329
2010-10-27 08:03:08 51°24.705 2°43.742 13.0277 3.927192 33.185584 0.009329
2010-10-27 08:04:08 51°24.657 2°43.751 13.0208 3.927086 33.181198 -0.025495
2010-10-27 08:05:10 51°24.654 2°43.742 13.0184 3.925821 33.183521 0.009329
2010-10-27 08:06:11 51°24.658 2°43.729 13.0125 3.92561 33.182212 -0.025495
2010-10-27 08:07:09 51°24.667 2°43.713 13.0137 3.924449 33.178064 0.009329
2010-10-27 08:08:08 51°24.681 2°43.715 13.0164 3.924555 33.1777 0.009329
2010-10-27 08:09:08 51°24.689 2°43.72 13.0202 3.924766 33.179689 -0.025495
2010-10-27 08:10:08 51°24.697 2°43.724 13.0182 3.924766 33.174938 -0.025495
2010-10-27 08:11:08 51°24.705 2°43.727 13.0221 3.927192 33.197802 0.009329
2010-10-27 08:12:08 51°24.714 2°43.724 13.0229 3.923816 33.161922 -0.025495
2010-10-27 08:13:08 51°24.725 2°43.715 13.0203 3.927297 33.194043 0.009329
2010-10-27 08:14:08 51°24.732 2°43.637 13.0308 3.926242 33.182746 -0.025495
2010-10-27 08:15:08 51°24.687 2°43.589 13.0319 3.928141 33.197922 0.009329
2010-10-27 08:16:08 51°24.634 2°43.647 13.0244 3.929196 33.20243 0.044153
2010-10-27 08:17:08 51°24.629 2°43.658 13.0201 3.927086 33.187983 0.009329
2010-10-27 08:18:08 51°24.635 2°43.663 13.0173 3.925399 33.174795 0.009329
2010-10-27 08:19:08 51°24.64 2°43.672 13.0127 3.925504 33.177146 -0.025495
2010-10-27 08:20:08 51°24.645 2°43.679 13.0046 3.924766 33.176974 0.009329
2010-10-27 08:21:08 51°24.648 2°43.684 13.0071 3.923078 33.165139 0.009329
2010-10-27 08:22:08 51°24.651 2°43.69 13.0159 3.923816 33.172098 0.009329
2010-10-27 08:23:08 51°24.655 2°43.692 13.0102 3.925082 33.17792 0.009329
2010-10-27 08:24:08 51°24.658 2°43.699 13.0081 3.923922 33.171735 -0.025495
2010-10-27 08:25:08 51°24.66 2°43.705 13.0106 3.923183 33.164776 0.009329
2010-10-27 08:26:08 51°24.666 2°43.706 13.0103 3.924344 33.172997 -0.025495
2010-10-27 08:27:08 51°24.673 2°43.707 13.0159 3.924977 33.178962 0.009329
2010-10-27 08:28:08 51°24.68 2°43.707 13.0199 3.926031 33.182116 0.009329
2010-10-27 08:29:08 51°24.687 2°43.705 13.0153 3.925504 33.177824 -0.025495
2010-10-27 08:30:08 51°24.694 2°43.704 13.0154 3.925926 33.182479 0.009329
2010-10-27 08:31:08 51°24.7 2°43.704 13.0218 3.926348 33.187134 -0.025495
2010-10-27 08:32:08 51°24.705 2°43.714 13.0211 3.926664 33.185365 0.009329
2010-10-27 08:33:08 51°24.707 2°43.765 13.0237 3.927403 33.189607 0.009329
2010-10-27 08:34:08 51°24.775 2°43.849 13.0294 3.926875 33.188031 0.009329
2010-10-27 08:35:08 51°24.919 2°44.01 13.0476 3.929301 33.204781 0.009329
2010-10-27 08:36:08 51°25.083 2°44.205 13.0519 3.933521 33.226876 0.044153
2010-10-27 08:37:08 51°25.254 2°44.4 13.0561 3.934998 33.240106 0.044153
2010-10-27 08:38:08 51°25.423 2°44.584 13.0633 3.93774 33.259823 0.044153
2010-10-27 08:39:08 51°25.589 2°44.783 13.0707 3.938162 33.258361 0.044153
2010-10-27 08:40:08 51°25.753 2°44.984 13.0787 3.941116 33.280058 0.009329
2010-10-27 08:41:08 51°25.919 2°45.187 13.0865 3.942065 33.286278 0.044153
2010-10-27 08:42:08 51°26.072 2°45.413 13.1018 3.944175 33.304103 0.009329
2010-10-27 08:43:08 51°26.221 2°45.64 13.116 3.948394 33.328185 0.044153
2010-10-27 08:44:08 51°26.372 2°45.86 13.1334 3.950504 33.335799 0.044153
2010-10-27 08:45:08 51°26.529 2°46.058 13.1407 3.955567 33.368477 0.044153
2010-10-27 08:46:08 51°26.679 2°46.273 13.1535 3.95831 33.389516 0.044153
2010-10-27 08:47:08 51°26.83 2°46.479 13.1556 3.961685 33.415825 0.044153
2010-10-27 08:48:08 51°26.981 2°46.691 13.1511 3.961896 33.407596 0.044153
2010-10-27 08:49:08 51°27.136 2°46.902 13.1467 3.962424 33.42141 0.044153
2010-10-27 08:50:08 51°27.289 2°47.117 13.1398 3.962107 33.421839 0.044153
2010-10-27 08:51:08 51°27.436 2°47.335 13.1388 3.96063 33.414756 0.044153
2010-10-27 08:52:08 51°27.59 2°47.532 13.1432 3.961685 33.428772 0.078977
2010-10-27 08:53:08 51°27.747 2°47.728 13.1516 3.962424 33.430268 0.044153
2010-10-27 08:54:08 51°27.903 2°47.927 13.1671 3.96369 33.436726 0.078977
2010-10-27 08:55:08 51°28.059 2°48.13 13.1762 3.966854 33.454229 0.078977
2010-10-27 08:56:08 51°28.214 2°48.34 13.2021 3.968225 33.45009 0.078977
2010-10-27 08:57:08 51°28.364 2°48.553 13.2169 3.973605 33.487722 0.078977
2010-10-27 08:58:08 51°28.514 2°48.764 13.2252 3.978036 33.513004 0.044153
2010-10-27 08:59:08 51°28.669 2°48.969 13.2351 3.980251 33.521548 0.078977
2010-10-27 09:00:08 51°28.825 2°49.169 13.2468 3.982783 33.535788 0.044153
2010-10-27 09:01:08 51°28.985 2°49.373 13.2461 3.981833 33.521418 0.044153
2010-10-27 09:02:08 51°29.14 2°49.566 13.245 3.983838 33.542287 0.044153
2010-10-27 09:03:08 51°29.294 2°49.768 13.2519 3.983627 33.538942 0.044153
2010-10-27 09:04:08 51°29.44 2°49.983 13.2649 3.98658 33.559865 0.044153
2010-10-27 09:05:08 51°29.593 2°50.198 13.2644 3.987424 33.562334 0.044153
2010-10-27 09:06:08 51°29.635 2°50.497 13.2929 3.988901 33.565973 0.044153
2010-10-27 09:07:08 51°29.553 2°50.795 13.2339 3.987002 33.554963 0.078977
2010-10-27 09:08:08 51°29.455 2°51.083 13.1999 3.977614 33.494048 0.009329
2010-10-27 09:09:08 51°29.352 2°51.363 13.1602 3.968331 33.435422 0.044153
2010-10-27 09:10:08 51°29.243 2°51.642 13.1325 3.959259 33.384837 0.044153
2010-10-27 09:11:08 51°29.135 2°51.921 13.0886 3.951875 33.334425 -0.025495
2010-10-27 09:12:08 51°29.021 2°52.197 13.0393 3.941643 33.282306 0.009329
2010-10-27 09:13:08 51°28.915 2°52.476 13.0024 3.932888 33.236536 0.009329
2010-10-27 09:14:08 51°28.804 2°52.753 12.987 3.926032 33.206565 0.044153
2010-10-27 09:15:08 51°28.687 2°53.024 12.9376 3.920336 33.182065 0.009329
2010-10-27 09:16:08 51°28.572 2°53.299 12.8386 3.914746 33.156492 0.009329
2010-10-27 09:17:08 51°28.455 2°53.557 12.7791 3.896182 33.06537 0.009329
2010-10-27 09:18:08 51°28.388 2°53.677 12.738 3.883736 32.999253 -0.025495
2010-10-27 09:19:08 51°28.353 2°53.72 12.7092 3.876141 32.959948 -0.060319
2010-10-27 09:20:08 51°28.332 2°53.737 12.7038 3.871712 32.938356 -0.025495
2010-10-27 09:21:08 51°28.319 2°53.743 12.6953 3.869075 32.924913 -0.060319
2010-10-27 09:22:08 51°28.314 2°53.745 12.6962 3.868336 32.919951 -0.060319
2010-10-27 09:23:08 51°28.311 2°53.743 12.6955 3.867704 32.915309 -0.060319
2010-10-27 09:24:08 51°28.31 2°53.74 12.689 3.867282 32.913348 -0.060319
2010-10-27 09:25:08 51°28.308 2°53.738 12.6851 3.867071 32.915426 -0.060319
2010-10-27 09:26:08 51°28.308 2°53.733 12.6871 3.866016 32.911541 -0.060319
2010-10-27 09:27:08 51°28.306 2°53.731 12.6826 3.865911 32.91122 -0.060319
2010-10-27 09:28:08 51°28.304 2°53.726 12.678 3.864539 32.904332 -0.025495
2010-10-27 09:29:08 51°28.302 2°53.726 12.6757 3.865067 32.906615 -0.025495
2010-10-27 09:30:08 51°28.299 2°53.725 12.6784 3.864539 32.902972 -0.095143
2010-10-27 09:31:08 51°28.297 2°53.722 12.6722 3.864645 32.903973 -0.060319
2010-10-27 09:32:08 51°28.294 2°53.72 12.6654 3.864539 32.907052 -0.095143
2010-10-27 09:33:08 51°28.291 2°53.718 12.6646 3.863274 32.899803 -0.095143
2010-10-27 09:34:08 51°28.287 2°53.716 12.6668 3.862535 32.892797 -0.095143
2010-10-27 09:35:08 51°28.284 2°53.712 12.6691 3.862957 32.89612 -0.060319
2010-10-27 09:36:08 51°28.282 2°53.708 12.6636 3.862957 32.89884 -0.060319
2010-10-27 09:37:08 51°28.279 2°53.705 12.6632 3.862535 32.894157 -0.060319
2010-10-27 09:38:08 51°28.276 2°53.703 12.6616 3.863907 32.907848 -0.060319
2010-10-27 09:39:08 51°28.27 2°53.7 12.6631 3.863485 32.904525 -0.060319
2010-10-27 09:40:08 51°28.266 2°53.701 12.6629 3.86243 32.896556 -0.060319
2010-10-27 09:41:08 51°28.249 2°53.742 12.6615 3.862219 32.891154 -0.060319
2010-10-27 09:42:08 51°28.256 2°53.826 12.6515 3.861903 32.892911 -0.025495
2010-10-27 09:43:08 51°28.319 2°53.854 12.6421 3.860637 32.886339 -0.025495
2010-10-27 09:44:08 51°28.441 2°53.798 12.6509 3.857895 32.875268 -0.060319
2010-10-27 09:45:08 51°28.615 2°53.712 12.6725 3.860215 32.891176 0.009329
2010-10-27 09:46:08 51°28.806 2°53.629 12.6944 3.865067 32.917498 -0.025495
2010-10-27 09:47:08 51°28.996 2°53.538 12.7268 3.868864 32.931072 -0.025495
2010-10-27 09:48:08 51°29.191 2°53.445 12.783 3.876563 32.968026 -0.060319
2010-10-27 09:49:08 51°29.377 2°53.331 12.8437 3.887849 33.028002 -0.025495
2010-10-27 09:50:08 51°29.57 2°53.273 12.866 3.90019 33.099203 0.009329
2010-10-27 09:51:08 51°29.764 2°53.243 12.8563 3.901034 33.091534 -0.025495
2010-10-27 09:52:08 51°29.961 2°53.213 12.8624 3.897869 33.068413 0.009329
2010-10-27 09:53:08 51°30.159 2°53.178 12.8715 3.899979 33.078162 0.009329
2010-10-27 09:54:08 51°30.359 2°53.142 12.8833 3.899873 33.071048 -0.025495
2010-10-27 09:55:08 51°30.56 2°53.126 13.0599 3.903354 33.088316 0.044153
2010-10-27 09:56:08 51°30.757 2°53.097 13.221 3.948078 33.353115 0.044153
2010-10-27 09:57:08 51°30.944 2°53.056 13.2711 3.987952 33.595959 0.044153
2010-10-27 09:58:08 51°31.084 2°52.95 13.2855 3.998396 33.657856 0.078977
2010-10-27 09:59:08 51°31.168 2°52.848 13.2933 4.002826 33.685105 0.113802
2010-10-27 10:00:08 51°31.219 2°52.736 13.3 4.004408 33.692439 0.113802
2010-10-27 10:01:08 51°31.223 2°52.6 13.307 4.006518 33.712248 0.078977
2010-10-27 10:02:07 51°31.231 2°52.501 13.3141 4.009156 33.725374 0.078977
2010-10-27 10:03:08 51°31.229 2°52.493 13.3219 4.009683 33.728272 0.078977
2010-10-27 10:04:08 51°31.219 2°52.496 13.3238 4.012742 33.749458 0.078977
2010-10-27 10:05:08 51°31.212 2°52.496 13.3247 4.012848 33.74771 0.078977
2010-10-27 10:06:08 51°31.209 2°52.489 13.3241 4.013481 33.752966 0.078977
2010-10-27 10:07:08 51°31.207 2°52.479 13.3227 4.012953 33.747331 0.078977
2010-10-27 10:08:08 51°31.206 2°52.472 13.3226 4.012109 33.740095 0.113802
2010-10-27 10:09:08 51°31.205 2°52.466 13.3216 4.012426 33.745119 0.078977
2010-10-27 10:10:08 51°31.203 2°52.464 13.3254 4.012848 33.751133 0.113802
2010-10-27 10:11:08 51°31.203 2°52.46 13.3261 4.012637 33.746414 0.078977
2010-10-27 10:12:08 51°31.204 2°52.45 13.3232 4.012848 33.744288 0.078977
2010-10-27 10:13:08 51°31.206 2°52.441 13.324 4.011582 33.736514 0.078977
2010-10-27 10:14:08 51°31.211 2°52.433 13.3246 4.01327 33.752355 0.078977
2010-10-27 10:15:08 51°31.216 2°52.425 13.3293 4.013164 33.748627 0.113802
2010-10-27 10:16:08 51°31.222 2°52.422 13.3271 4.012426 33.738275 0.113802
2010-10-27 10:17:08 51°31.228 2°52.42 13.3271 4.014325 33.755409 0.078977
2010-10-27 10:18:08 51°31.236 2°52.421 13.3271 4.012531 33.741318 0.113802
2010-10-27 10:19:08 51°31.243 2°52.425 13.3269 4.013059 33.746268 0.078977
2010-10-27 10:20:08 51°31.249 2°52.431 13.3261 4.011582 33.733777 0.078977
2010-10-27 10:21:08 51°31.255 2°52.443 13.325 4.014008 33.751071 0.078977
2010-10-27 10:22:08 51°31.255 2°52.457 13.3229 4.013586 33.747795 0.078977
2010-10-27 10:23:08 51°31.251 2°52.466 13.3232 4.013164 33.743152 0.113802
2010-10-27 10:24:08 51°31.243 2°52.47 13.3273 4.012742 33.737824 0.078977
2010-10-27 10:25:08 51°31.234 2°52.47 13.3254 4.014008 33.748333 0.078977
2010-10-27 10:26:08 51°31.229 2°52.465 13.3246 4.013164 33.741099 0.113802
2010-10-27 10:27:08 51°31.227 2°52.458 13.3226 4.011898 33.732642 0.078977
2010-10-27 10:28:08 51°31.225 2°52.449 13.3225 4.012426 33.734855 0.078977
2010-10-27 10:29:08 51°31.223 2°52.448 13.3245 4.012742 33.739877 0.078977
2010-10-27 10:30:08 51°31.218 2°52.453 13.3289 4.012848 33.73813 0.078977
2010-10-27 10:31:08 51°31.212 2°52.457 13.323 4.012848 33.737446 0.113802
2010-10-27 10:32:08 51°31.208 2°52.458 13.3216 4.01327 33.743457 0.113802
2010-10-27 10:33:08 51°31.205 2°52.458 13.3232 4.012953 33.741172 0.113802
2010-10-27 10:34:08 51°31.203 2°52.459 13.3223 4.012848 33.73813 0.078977
2010-10-27 10:35:08 51°31.201 2°52.461 13.3221 4.012742 33.738508 0.044153
2010-10-27 10:36:08 51°31.2 2°52.469 13.3202 4.012848 33.740182 0.078977
2010-10-27 10:37:08 51°31.199 2°52.476 13.3167 4.01232 33.73797 0.078977
2010-10-27 10:38:08 51°31.199 2°52.481 13.3182 4.012215 33.737664 0.113802
2010-10-27 10:39:08 51°31.198 2°52.484 13.3186 4.012426 33.738275 0.113802
2010-10-27 10:40:08 51°31.199 2°52.483 13.3183 4.012004 33.735 0.078977
2010-10-27 10:41:08 51°31.198 2°52.48 13.3206 4.011582 33.731725 0.044153
2010-10-27 10:42:08 51°31.198 2°52.479 13.3183 4.011898 33.73401 0.113802
2010-10-27 10:43:08 51°31.197 2°52.476 13.314 4.011793 33.735073 0.113802
2010-10-27 10:44:08 51°31.197 2°52.476 13.3165 4.011793 33.735757 0.078977
2010-10-27 10:45:08 51°31.198 2°52.477 13.3164 4.012215 33.737664 0.044153
2010-10-27 10:46:08 51°31.197 2°52.477 13.3156 4.011582 33.732409 0.078977
2010-10-27 10:47:08 51°31.198 2°52.475 13.3154 4.011054 33.727459 0.044153
2010-10-27 10:48:08 51°31.199 2°52.477 13.3182 4.011793 33.733704 0.113802
2010-10-27 10:49:08 51°31.2 2°52.475 13.315 4.011582 33.730357 0.078977
2010-10-27 10:50:08 51°31.2 2°52.471 13.315 4.010316 33.719846 0.078977
2010-10-27 10:51:08 51°31.199 2°52.471 13.3155 4.011687 33.733399 0.113802
2010-10-27 10:52:08 51°31.199 2°52.469 13.3151 4.011265 33.728071 0.078977
2010-10-27 10:53:08 51°31.198 2°52.47 13.3145 4.011793 33.733704 0.078977
2010-10-27 10:54:08 51°31.197 2°52.472 13.3166 4.011371 33.729745 0.078977
2010-10-27 10:55:08 51°31.198 2°52.478 13.3153 4.011476 33.729367 0.078977
2010-10-27 10:56:08 51°31.198 2°52.48 13.3158 4.01116 33.729817 0.113802
2010-10-27 10:57:08 51°31.198 2°52.48 13.3123 4.010421 33.72152 0.078977
2010-10-27 10:58:08 51°31.199 2°52.479 13.3129 4.011476 33.734156 0.044153
2010-10-27 10:59:08 51°31.198 2°52.479 13.3119 4.011054 33.728827 0.078977
2010-10-27 11:00:08 51°31.198 2°52.48 13.3143 4.009894 33.718622 0.113802
2010-10-27 11:01:08 51°31.199 2°52.48 13.3126 4.009999 33.719612 0.113802
2010-10-27 11:02:08 51°31.198 2°52.479 13.3148 4.011265 33.730807 0.078977
2010-10-27 11:03:08 51°31.198 2°52.478 13.3145 4.011265 33.730123 0.078977
2010-10-27 11:04:08 51°31.198 2°52.477 13.3157 4.010843 33.726164 0.113802
2010-10-27 11:05:08 51°31.198 2°52.477 13.3135 4.010949 33.727837 0.078977
2010-10-27 11:06:08 51°31.197 2°52.479 13.313 4.011793 33.736441 0.113802
2010-10-27 11:07:08 51°31.198 2°52.479 13.3142 4.010421 33.722888 0.113802
2010-10-27 11:08:08 51°31.198 2°52.48 13.3109 4.009788 33.718316 0.113802
2010-10-27 11:09:08 51°31.198 2°52.479 13.3126 4.009577 33.714969 0.078977
2010-10-27 11:10:08 51°31.198 2°52.481 13.3117 4.009261 33.714051 0.078977
2010-10-27 11:11:08 51°31.199 2°52.483 13.3123 4.010421 33.725624 0.078977
2010-10-27 11:12:08 51°31.199 2°52.482 13.3132 4.01021 33.724328 0.113802
2010-10-27 11:13:08 51°31.198 2°52.481 13.3106 4.010316 33.725318 0.113802
2010-10-27 11:14:08 51°31.198 2°52.48 13.3126 4.010316 33.72395 0.078977
2010-10-27 11:15:08 51°31.198 2°52.48 13.3141 4.010632 33.725552 0.078977
2010-10-27 11:16:08 51°31.198 2°52.482 13.314 4.010632 33.724868 0.113802
2010-10-27 11:17:08 51°31.199 2°52.486 13.3114 4.011371 33.732481 0.113802
2010-10-27 11:18:08 51°31.2 2°52.486 13.3149 4.011582 33.733093 0.078977
2010-10-27 11:19:08 51°31.2 2°52.484 13.3139 4.010843 33.726164 0.078977
2010-10-27 11:20:08 51°31.2 2°52.485 13.3137 4.010949 33.727837 0.113802
2010-10-27 11:21:08 51°31.2 2°52.482 13.3175 4.01116 33.729817 0.113802
2010-10-27 11:22:08 51°31.2 2°52.483 13.3209 4.011476 33.730735 0.078977
2010-10-27 11:23:08 51°31.2 2°52.484 13.3155 4.011476 33.728683 0.113802
2010-10-27 11:24:08 51°31.201 2°52.482 13.3185 4.011476 33.730051 0.078977
2010-10-27 11:25:08 51°31.203 2°52.469 13.3175 4.011898 33.731274 0.113802
2010-10-27 11:26:08 51°31.207 2°52.464 13.3189 4.011371 33.728377 0.113802
2010-10-27 11:27:08 51°31.211 2°52.474 13.3164 4.011582 33.730357 0.078977
2010-10-27 11:28:08 51°31.213 2°52.489 13.3159 4.011476 33.730735 0.113802
2010-10-27 11:29:08 51°31.211 2°52.504 13.3121 4.011371 33.729745 0.113802
2010-10-27 11:30:08 51°31.204 2°52.512 13.3089 4.011265 33.731491 0.113802
2010-10-27 11:31:08 51°31.198 2°52.52 13.3102 4.009999 33.723032 0.113802
2010-10-27 11:32:08 51°31.186 2°52.55 13.3106 4.009894 33.718622 0.078977
2010-10-27 11:33:08 51°31.192 2°52.629 13.3058 4.009999 33.721664 0.113802
2010-10-27 11:34:08 51°31.263 2°52.754 13.3043 4.009472 33.723555 0.078977
2010-10-27 11:35:08 51°31.405 2°52.899 13.2942 4.007573 33.710521 0.113802
2010-10-27 11:36:08 51°31.513 2°53.16 13.2732 4.004092 33.67853 0.113802
2010-10-27 11:37:08 51°31.62 2°53.43 13.2389 3.995231 33.628817 0.148626
2010-10-27 11:38:08 51°31.73 2°53.696 13.2166 3.990273 33.600688 0.148626
2010-10-27 11:39:08 51°31.85 2°53.962 13.1977 3.984787 33.564851 0.113802
2010-10-27 11:40:08 51°31.96 2°54.236 13.1768 3.979513 33.536436 0.113802
2010-10-27 11:41:08 51°32.074 2°54.498 13.1532 3.975082 33.509109 0.113802
2010-10-27 11:42:08 51°32.201 2°54.739 13.1421 3.971285 33.490449 0.113802
2010-10-27 11:43:08 51°32.363 2°54.919 13.1506 3.968964 33.476804 0.078977
2010-10-27 11:44:08 51°32.492 2°55.056 13.143 3.968964 33.48158 0.113802
2010-10-27 11:45:07 51°32.51 2°55.159 13.1408 3.969386 33.486915 0.113802
2010-10-27 11:46:08 51°32.498 2°55.215 13.1411 3.969597 33.488218 0.113802
2010-10-27 11:47:08 51°32.485 2°55.245 13.138 3.969703 33.489211 0.044153
2010-10-27 11:48:08 51°32.473 2°55.263 13.132 3.968964 33.486357 0.113802
2010-10-27 11:49:08 51°32.465 2°55.281 13.1298 3.968331 33.483814 0.078977
2010-10-27 11:50:08 51°32.46 2°55.358 13.1276 3.968542 33.483752 0.113802
2010-10-27 11:51:08 51°32.514 2°55.4 13.1252 3.967487 33.482015 0.113802
2010-10-27 11:52:08 51°32.6 2°55.423 13.1289 3.96696 33.477733 0.078977
2010-10-27 11:53:08 51°32.662 2°55.472 13.1341 3.967698 33.48127 0.113802
2010-10-27 11:54:08 51°32.669 2°55.539 13.1503 3.968437 33.478664 0.113802
2010-10-27 11:55:08 51°32.662 2°55.579 13.1577 3.969597 33.482076 0.113802
2010-10-27 11:56:08 51°32.651 2°55.605 13.1407 3.968331 33.472213 0.078977
2010-10-27 11:57:08 51°32.644 2°55.623 13.1411 3.968437 33.476617 0.113802
2010-10-27 11:58:08 51°32.639 2°55.639 13.1369 3.968226 33.476679 0.113802
2010-10-27 11:59:08 51°32.613 2°55.679 13.1405 3.96812 33.475686 0.078977
2010-10-27 12:00:08 51°32.566 2°55.697 13.1304 3.967276 33.471156 0.078977
2010-10-27 12:01:08 51°32.533 2°55.633 13.1226 3.96696 33.475685 0.113802
2010-10-27 12:02:08 51°32.592 2°55.507 13.1271 3.965905 33.472581 0.113802
2010-10-27 12:03:08 51°32.731 2°55.285 13.1556 3.966327 33.469728 0.113802
2010-10-27 12:04:08 51°32.909 2°55.125 13.1948 3.970863 33.485116 0.148626
2010-10-27 12:05:08 51°33.094 2°55.13 13.2694 3.972867 33.468518 0.113802
2010-10-27 12:06:08 51°33.203 2°55.39 13.2505 3.975504 33.465385 0.148626
2010-10-27 12:07:08 51°33.146 2°55.659 13.2447 3.980355 33.449088 0.113802
2010-10-27 12:08:08 51°33.092 2°55.781 13.2288 3.975609 33.450058 0.113802
2010-10-27 12:09:08 51°33.061 2°55.849 13.2178 3.974871 33.462163 0.113802
2010-10-27 12:10:08 51°33.042 2°55.892 13.2065 3.97371 33.461471 0.113802
2010-10-27 12:11:08 51°33.029 2°55.92 13.1923 3.973183 33.462641 0.078977
2010-10-27 12:12:08 51°33.022 2°55.943 13.1983 3.97255 33.461459 0.113802
2010-10-27 12:13:08 51°33.019 2°55.963 13.1962 3.972023 33.46195 0.113802
2010-10-27 12:14:08 51°33.015 2°55.985 13.1841 3.971073 33.457794 0.078977
2010-10-27 12:15:08 51°33.012 2°56.004 13.1858 3.970441 33.459336 0.078977
2010-10-27 12:16:08 51°33.011 2°56.026 13.179 3.970651 33.459957 0.078977
2010-10-27 12:17:08 51°33.006 2°56.049 13.1777 3.970124 33.457724 0.113802
2010-10-27 12:18:08 51°33.004 2°56.07 13.1768 3.969702 33.457844 0.044153
2010-10-27 12:19:08 51°33.004 2°56.089 13.1698 3.969386 33.454869 0.113802
2010-10-27 12:20:08 51°33.005 2°56.108 13.1651 3.969069 33.4553 0.044153
2010-10-27 12:21:08 51°33.006 2°56.125 13.1642 3.967487 33.444509 0.078977
2010-10-27 12:22:08 51°33.005 2°56.147 13.1609 3.968225 33.453496 0.078977
2010-10-27 12:23:08 51°33.003 2°56.169 13.1586 3.967487 33.449278 0.078977
2010-10-27 12:24:08 51°33.002 2°56.192 13.1548 3.967382 33.451011 0.078977
2010-10-27 12:25:08 51°33.002 2°56.211 13.1583 3.967382 33.451011 0.078977
2010-10-27 12:26:08 51°33.004 2°56.232 13.1535 3.967698 33.45535 0.078977
2010-10-27 12:27:08 51°33.006 2°56.252 13.157 3.966854 33.453547 0.078977
2010-10-27 12:28:08 51°33.012 2°56.263 13.1559 3.967065 33.451442 0.078977
2010-10-27 12:29:10 51°33.021 2°56.254 13.1533 3.967276 33.456153 0.078977
2010-10-27 12:30:10 51°33.027 2°56.246 13.1515 3.96601 33.444246 0.078977
2010-10-27 12:31:08 51°33.032 2°56.23 13.1488 3.965799 33.444306 0.078977
2010-10-27 12:32:08 51°33.039 2°56.247 13.151 3.966116 33.44592 0.113802
2010-10-27 12:33:08 51°33.086 2°56.284 13.1485 3.965272 33.443434 0.078977
2010-10-27 12:34:08 51°33.151 2°56.22 13.1499 3.96274 33.420981 0.113802
2010-10-27 12:35:08 51°33.192 2°56.106 13.1599 3.966643 33.455653 0.113802
2010-10-27 12:36:08 51°33.206 2°55.997 13.1693 3.968015 33.45969 0.078977
2010-10-27 12:37:08 51°33.183 2°55.932 13.183 3.969491 33.461311 0.113802
2010-10-27 12:38:08 51°33.145 2°55.868 13.1905 3.970968 33.467701 0.078977
2010-10-27 12:39:08 51°33.085 2°55.855 13.196 3.968014 33.43517 0.078977
2010-10-27 12:40:08 51°33.023 2°55.895 13.1975 3.971284 33.459777 0.113802
2010-10-27 12:41:08 51°33.022 2°55.926 13.203 3.971495 33.455632 0.113802
2010-10-27 12:42:08 51°33.029 2°55.947 13.1988 3.971917 33.459597 0.113802
2010-10-27 12:43:08 51°33.037 2°55.962 13.2025 3.972445 33.460468 0.078977
2010-10-27 12:44:08 51°33.046 2°55.985 13.1957 3.97139 33.454641 0.113802
2010-10-27 12:45:08 51°33.052 2°56.012 13.1959 3.971812 33.46201 0.113802
2010-10-27 12:46:08 51°33.057 2°56.04 13.2 3.972023 33.461269 0.113802
2010-10-27 12:47:08 51°33.059 2°56.082 13.2043 3.971812 33.457244 0.113802
2010-10-27 12:48:08 51°33.059 2°56.122 13.2006 3.972656 33.461089 0.113802
2010-10-27 12:49:08 51°33.063 2°56.158 13.2059 3.972445 33.461149 0.078977
2010-10-27 12:50:07 51°33.068 2°56.194 13.2 3.972023 33.459227 0.113802
2010-10-27 12:51:07 51°33.073 2°56.231 13.1971 3.971812 33.457244 0.044153
2010-10-27 12:52:07 51°33.077 2°56.268 13.1989 3.971179 33.451978 0.113802
2010-10-27 12:53:07 51°33.083 2°56.307 13.2024 3.971812 33.459286 0.078977
2010-10-27 12:54:07 51°33.085 2°56.353 13.1936 3.971601 33.455943 0.078977
2010-10-27 12:55:07 51°33.062 2°56.456 13.1886 3.972445 33.463191 0.113802
2010-10-27 12:56:07 51°33.007 2°56.659 13.1904 3.971284 33.459777 0.113802
2010-10-27 12:57:07 51°32.898 2°56.922 13.1771 3.970968 33.451357 0.113802
2010-10-27 12:58:07 51°32.741 2°57.166 13.1676 3.96928 33.436178 0.078977
2010-10-27 12:59:07 51°32.57 2°57.396 13.1751 3.964955 33.414582 0.113802
2010-10-27 13:00:07 51°32.372 2°57.528 13.1423 3.964533 33.411297 0.078977
2010-10-27 13:01:08 51°32.16 2°57.565 13.1165 3.961685 33.41242 0.113802
2010-10-27 13:02:07 51°31.955 2°57.567 13.1127 3.958626 33.398621 0.078977
2010-10-27 13:03:07 51°31.752 2°57.532 13.1246 3.959259 33.405939 0.044153
2010-10-27 13:04:07 51°31.554 2°57.483 13.1206 3.959786 33.402729 0.078977
2010-10-27 13:05:07 51°31.357 2°57.416 13.1533 3.961791 33.417499 0.078977
2010-10-27 13:06:07 51°31.163 2°57.351 12.9192 3.962951 33.427734 0.078977
2010-10-27 13:07:07 51°30.969 2°57.296 12.8311 3.907784 33.119978 -0.025495
2010-10-27 13:08:07 51°30.777 2°57.244 12.7754 3.897764 33.072175 0.009329
2010-10-27 13:09:07 51°30.584 2°57.194 12.7087 3.882786 32.997062 -0.025495
2010-10-27 13:10:07 51°30.397 2°57.116 12.6505 3.870973 32.932037 -0.025495
2010-10-27 13:11:07 51°30.212 2°57.032 12.6147 3.860531 32.882618 -0.060319
2010-10-27 13:12:07 51°30.024 2°56.945 12.6082 3.855047 32.85163 -0.060319
2010-10-27 13:13:07 51°29.836 2°56.864 12.5977 3.854414 32.856498 -0.060319
2010-10-27 13:14:07 51°29.648 2°56.787 12.5739 3.85125 32.836644 -0.025495
2010-10-27 13:15:07 51°29.459 2°56.706 12.541 3.847137 32.824761 -0.060319
2010-10-27 13:16:07 51°29.266 2°56.62 12.5352 3.843445 32.810074 -0.060319
2010-10-27 13:17:08 51°29.076 2°56.545 12.5161 3.840176 32.787822 -0.060319
2010-10-27 13:18:08 51°28.893 2°56.476 12.5086 3.835641 32.760322 -0.025495
2010-10-27 13:19:07 51°28.707 2°56.399 12.5114 3.833215 32.739962 -0.060319
2010-10-27 13:20:07 51°28.522 2°56.327 12.5305 3.832687 32.732907 -0.025495
2010-10-27 13:21:08 51°28.333 2°56.251 12.5523 3.834164 32.736762 -0.060319
2010-10-27 13:22:07 51°28.152 2°56.179 12.5919 3.839332 32.760769 -0.025495
2010-10-27 13:23:07 51°27.97 2°56.101 12.3593 3.839859 32.768499 -0.095143
2010-10-27 13:24:07 51°27.787 2°56.019 12.2919 3.80052 32.564334 -0.060319
2010-10-27 13:25:07 51°27.603 2°55.943 12.2882 3.790079 32.508807 -0.095143
2010-10-27 13:26:07 51°27.42 2°55.863 12.2776 3.789341 32.508547 -0.095143
2010-10-27 13:27:07 51°27.235 2°55.781 12.2491 3.785334 32.484522 -0.060319
2010-10-27 13:28:07 51°27.052 2°55.701 12.1555 3.780166 32.460936 -0.095143
2010-10-27 13:29:07 51°26.871 2°55.625 11.9757 3.751587 32.310916 -0.060319
2010-10-27 13:30:07 51°26.69 2°55.553 11.9211 3.727121 32.173186 -0.129967
2010-10-27 13:31:07 51°26.508 2°55.478 11.876 3.714255 32.106502 -0.095143
2010-10-27 13:32:07 51°26.325 2°55.404 11.8766 3.707296 32.074809 -0.095143
2010-10-27 13:33:07 51°26.143 2°55.331 11.8841 3.707718 32.077512 -0.095143
2010-10-27 13:34:07 51°25.958 2°55.255 11.8761 3.708456 32.081225 -0.095143
2010-10-27 13:35:07 51°25.772 2°55.181 11.8991 3.708139 32.081572 -0.095143
2010-10-27 13:36:07 51°25.585 2°55.112 11.9076 3.712779 32.105189 -0.129967
2010-10-27 13:37:07 51°25.4 2°55.038 11.8852 3.712885 32.106203 -0.095143
2010-10-27 13:38:07 51°25.214 2°54.965 11.8837 3.709405 32.08968 -0.095143
2010-10-27 13:39:07 51°25.029 2°54.893 11.877 3.709405 32.087645 -0.060319
2010-10-27 13:40:07 51°24.852 2°54.837 11.8946 3.709299 32.088665 -0.095143
2010-10-27 13:41:07 51°24.671 2°54.769 11.9194 3.711725 32.103185 -0.095143
2010-10-27 13:42:07 51°24.492 2°54.703 11.9407 3.717841 32.136234 -0.095143
2010-10-27 13:43:07 51°24.309 2°54.633 11.9244 3.720161 32.149042 -0.095143
2010-10-27 13:44:07 51°24.13 2°54.563 11.9009 3.71763 32.138957 -0.095143
2010-10-27 13:45:07 51°23.95 2°54.493 11.8962 3.714045 32.11872 -0.060319
2010-10-27 13:46:07 51°23.771 2°54.424 11.8919 3.712041 32.107586 -0.060319
2010-10-27 13:47:07 51°23.591 2°54.353 11.8701 3.710881 32.104567 -0.025495
2010-10-27 13:48:07 51°23.408 2°54.282 11.8576 3.707823 32.088026 -0.060319
2010-10-27 13:49:07 51°23.225 2°54.211 11.8209 3.704449 32.07386 -0.060319
2010-10-27 13:50:07 51°23.042 2°54.137 11.7756 3.698333 32.042767 -0.025495
2010-10-27 13:51:07 51°22.858 2°54.067 11.7522 3.689475 31.993342 -0.060319
2010-10-27 13:52:07 51°22.675 2°54 11.7125 3.683781 31.964874 -0.060319
2010-10-27 13:53:07 51°22.491 2°53.931 11.6861 3.673869 31.907176 -0.060319
2010-10-27 13:54:07 51°22.309 2°53.863 11.6391 3.671443 31.892568 -0.060319
2010-10-27 13:55:07 51°22.124 2°53.796 11.6097 3.661004 31.838472 -0.060319
2010-10-27 13:56:07 51°21.937 2°53.747 11.5842 3.654572 31.798636 -0.060319
2010-10-27 13:57:07 51°21.743 2°53.73 11.5682 3.651514 31.783285 -0.060319
2010-10-27 13:58:07 51°21.549 2°53.711 11.5541 3.649511 31.776775 -0.060319
2010-10-27 13:59:07 51°21.355 2°53.687 11.5466 3.647613 31.770606 -0.060319
2010-10-27 14:00:07 51°21.163 2°53.644 11.5432 3.647508 31.777047 -0.060319
2010-10-27 14:01:07 51°20.972 2°53.586 11.5154 3.646559 31.771248 0.009329
2010-10-27 14:02:07 51°20.78 2°53.525 11.4764 3.639916 31.748953 0.044153
2010-10-27 14:03:07 51°20.589 2°53.474 11.4597 3.638545 31.758078 0.044153
2010-10-27 14:04:07 51°20.399 2°53.421 11.4538 3.637491 31.755324 0.009329
2010-10-27 14:05:07 51°20.209 2°53.366 11.4587 3.6396 31.783277 0.009329
2010-10-27 14:06:07 51°20.022 2°53.316 11.4697 3.642236 31.804101 -0.025495
2010-10-27 14:07:07 51°19.837 2°53.261 11.4783 3.640233 31.784654 -0.025495
2010-10-27 14:08:07 51°19.657 2°53.176 11.5253 3.656999 31.920113 0.044153
2010-10-27 14:09:07 51°19.477 2°53.088 11.5207 3.669653 32.014873 0.044153
2010-10-27 14:10:07 51°19.294 2°53.001 11.5188 3.672394 32.042844 0.078977
2010-10-27 14:11:07 51°19.109 2°52.925 11.52 3.67018 32.030943 0.113802
2010-10-27 14:12:07 51°18.924 2°52.854 11.5523 2.697795 21.771031 0.113802
2010-10-27 14:13:07 51°18.74 2°52.781 11.5834 0.196861 1.140308 0.113802
2010-10-27 14:14:07 51°18.554 2°52.713 11.6058 0.074422 0.415301 0.044153
2010-10-27 14:15:07 51°18.37 2°52.638 11.6257 0.062665 0.34994 0.044153
2010-10-27 14:16:07 51°18.18 2°52.58 11.6516 0.059336 0.334374 0.044153
2010-10-27 14:17:07 51°17.988 2°52.544 11.6698 0.057776 0.32805 0.078977
2010-10-27 14:18:07 51°17.794 2°52.525 11.6856 0.057048 0.325503 0.113802
2010-10-27 14:19:07 51°17.597 2°52.548 11.7021 0.058712 0.335352 0.148626
2010-10-27 14:20:07 51°17.402 2°52.584 11.7122 0.060273 0.344542 0.113802
2010-10-27 14:21:07 51°17.208 2°52.669 11.7127 0.062354 0.356907 0.078977
2010-10-27 14:22:07 51°17.017 2°52.777 11.7071 0.065267 0.374231 0.078977
2010-10-27 14:23:07 51°16.824 2°52.88 11.7067 0.066931 0.384279 0.044153
2010-10-27 14:24:07 51°16.629 2°52.984 11.7137 0.066411 0.381218 0.078977
2010-10-27 14:25:07 51°16.441 2°53.121 11.6884 0.065995 0.378971 0.078977
2010-10-27 14:26:07 51°16.255 2°53.258 11.4763 0.065787 0.377918 -0.060319
2010-10-27 14:27:07 51°16.069 2°53.4 11.3604 0.065579 0.376877 -0.095143
2010-10-27 14:28:07 51°15.879 2°53.515 11.3596 0.065371 0.375771 -0.129967
2010-10-27 14:29:07 51°15.693 2°53.663 11.3623 0.065163 0.374619 -0.095143
2010-10-27 14:30:07 51°15.526 2°53.876 11.3362 0.065059 0.374059 -0.060319
2010-10-27 14:31:07 51°15.363 2°54.098 11.2217 0.064851 0.372984 -0.060319
2010-10-27 14:32:07 51°15.198 2°54.305 11.1125 0.064642 0.371837 0.078977
2010-10-27 14:33:07 51°15.03 2°54.503 10.9688 0.064434 0.370677 0.113802
2010-10-27 14:34:07 51°14.867 2°54.712 10.9792 0.064226 0.369549 0.148626
2010-10-27 14:35:07 51°14.694 2°54.893 10.942 0.063914 0.367795 0.148626
2010-10-27 14:36:07 51°14.515 2°55.06 10.9498 0.063706 0.366647 0.113802
2010-10-27 14:37:07 51°14.344 2°55.224 11.478 0.063394 0.364924 -0.338911
2010-10-27 14:38:10 51°14.187 2°55.367 11.6226 0.063186 0.363813 -0.373735
2010-10-27 14:39:10 51°14.069 2°55.455 11.7436 0.062978 0.36245 -0.408559
2010-10-27 14:40:09 51°13.974 2°55.523 11.7823 0.062562 0.360009 -0.408559
2010-10-27 14:41:07 51°13.878 2°55.593 11.8754 0.062146 0.357709 -0.373735
2010-10-27 14:42:07 51°13.781 2°55.681 11.9739 0.061833 0.355799 -0.373735
2010-10-27 14:43:07 51°13.722 2°55.783 12.0637 0.061625 0.354613 -0.373735
2010-10-27 14:44:07 51°13.684 2°55.878 12.1638 0.061313 0.352838 -0.338911
2010-10-27 14:45:07 51°13.664 2°55.956 12.3524 0.061105 0.351712 -0.338911
2010-10-27 14:46:11 51°13.662 2°55.96 12.5279 0.060897 0.350476 -0.338911